Logo Brunsvigian Airlines

Die löwenstarke Airline aus Braunschweig

Charts auf der Seite von VATEUD

EGLC 042320Z AUTO 22006KT 9999 NCD 19/11 Q1018

flugnummerleerzeichenankunftleerzeichenplanmaessig
ABS204__BRAUNSCHWEIG_____12doppelpunkt40
ABS207__BRAUNSCHWEIG_____18doppelpunkt40

flugnummerleerzeichenankunftleerzeichenplanmaessig
ABS203__LA_ROCHELLE______12doppelpunkt00
ABS206__NIZZA____________18doppelpunkt00

Kontakt   Impressum

Valid HTML 4.01 Transitional CSS ist valide!